Time;durP1;ratioP1;P1;durP2;ratioP2;P2;SDS_P1;SDS_P2;PMS_P1;PMS_P2;Temp;Humidity;BMP_temperature;BMP_pressure;BME280_temperature;BME280_humidity;BME280_pressure;Samples;Min_cycle;Max_cycle;Signal;HPM_P1;HPM_P2
2023/07/22 00:01:36;;;;;;;;;;;18.00;99.90;;;;;;6106713;23;19936;-72
2023/07/22 00:04:03;;;;;;;;;;;17.90;99.90;;;;;;6109829;23;20404;-72
2023/07/22 00:06:28;;;;;;;;;;;17.90;99.90;;;;;;6108794;23;20005;-72
2023/07/22 00:08:54;;;;;;;;;;;17.90;99.90;;;;;;6107620;23;19995;-72
2023/07/22 00:11:20;;;;;;;;;;;17.90;99.90;;;;;;6108770;23;20616;-71
2023/07/22 00:13:45;;;;;;;;;;;17.90;99.90;;;;;;6104658;23;19930;-71
2023/07/22 00:16:11;;;;;;;;;;;17.90;99.90;;;;;;6110202;23;20550;-71
2023/07/22 00:18:36;;;;;;;;;;;17.90;99.90;;;;;;6107650;23;20327;-71
2023/07/22 00:21:02;;;;;;;;;;;17.90;99.90;;;;;;6110344;23;19932;-71
2023/07/22 00:23:27;;;;;;;;;;;17.90;99.90;;;;;;6107965;23;20330;-70
2023/07/22 00:25:53;;;;;;;;;;;17.80;99.90;;;;;;6107168;23;19931;-70
2023/07/22 00:28:18;;;;;;;;;;;17.80;99.90;;;;;;6106415;23;20389;-69
2023/07/22 00:30:44;;;;;;;;;;;17.80;99.90;;;;;;6107243;23;19964;-70
2023/07/22 00:33:09;;;;;;;;;;;17.80;99.90;;;;;;6109372;23;20354;-70
2023/07/22 00:35:35;;;;;;;;;;;17.70;99.90;;;;;;6108368;23;19935;-70
2023/07/22 00:38:01;;;;;;;;;;;17.60;99.90;;;;;;6108007;23;20233;-70
2023/07/22 00:40:27;;;;;;;;;;;17.60;99.90;;;;;;6109846;23;19932;-71
2023/07/22 00:42:53;;;;;;;;;;;17.60;99.90;;;;;;6109840;23;19929;-71
2023/07/22 00:45:18;;;;;;;;;;;17.50;99.90;;;;;;6106417;23;20739;-71
2023/07/22 00:47:44;;;;;;;;;;;17.60;99.90;;;;;;6108728;23;20346;-70
2023/07/22 00:50:10;;;;;;;;;;;17.60;99.90;;;;;;6109075;23;20383;-70
2023/07/22 00:52:35;;;;;;;;;;;17.50;99.90;;;;;;6109065;23;20767;-70
2023/07/22 00:55:01;;;;;;;;;;;17.50;99.90;;;;;;6109345;23;19930;-70
2023/07/22 00:57:27;;;;;;;;;;;17.40;99.90;;;;;;6109801;23;19928;-70
2023/07/22 00:59:53;;;;;;;;;;;17.40;99.90;;;;;;6110003;23;19930;-70
2023/07/22 01:02:19;;;;;;;;;;;17.30;99.90;;;;;;6110054;23;20194;-70
2023/07/22 01:04:45;;;;;;;;;;;17.30;99.90;;;;;;6109004;23;20010;-70
2023/07/22 01:07:10;;;;;;;;;;;17.30;99.90;;;;;;6109162;23;19928;-70
2023/07/22 01:09:39;;;;;;;;;;;17.30;99.90;;;;;;6110341;23;20318;-71
2023/07/22 01:12:06;;;;;;;;;;;17.30;99.90;;;;;;6110178;23;19972;-70
2023/07/22 01:14:35;;;;;;;;;;;17.30;99.90;;;;;;6109346;23;19929;-71
2023/07/22 01:17:04;;;;;;;;;;;17.30;99.90;;;;;;6109832;23;20374;-70
2023/07/22 01:19:31;;;;;;;;;;;17.30;99.90;;;;;;6107457;23;20163;-70
2023/07/22 01:21:57;;;;;;;;;;;17.30;99.90;;;;;;6107672;23;19929;-71
2023/07/22 01:24:23;;;;;;;;;;;17.30;99.90;;;;;;6111537;23;19932;-70
2023/07/22 01:26:48;;;;;;;;;;;17.30;99.90;;;;;;6108555;23;19932;-71
2023/07/22 01:29:14;;;;;;;;;;;17.40;99.90;;;;;;6108842;23;19958;-70
2023/07/22 01:31:40;;;;;;;;;;;17.30;99.90;;;;;;6110557;23;20047;-70
2023/07/22 01:34:06;;;;;;;;;;;17.30;99.90;;;;;;6109602;23;19941;-70
2023/07/22 01:36:32;;;;;;;;;;;17.30;99.90;;;;;;6107243;23;19953;-70
2023/07/22 01:38:57;;;;;;;;;;;17.30;99.90;;;;;;6109807;23;20004;-70
2023/07/22 01:41:23;;;;;;;;;;;17.30;99.90;;;;;;6109962;23;20274;-70
2023/07/22 01:43:49;;;;;;;;;;;17.30;99.90;;;;;;6109725;23;19969;-70
2023/07/22 01:46:14;;;;;;;;;;;17.30;99.90;;;;;;6109323;23;19996;-69
2023/07/22 01:48:40;;;;;;;;;;;17.30;99.90;;;;;;6108673;23;20297;-70
2023/07/22 01:51:05;;;;;;;;;;;17.20;99.90;;;;;;6106361;23;20737;-70
2023/07/22 01:53:31;;;;;;;;;;;17.20;99.90;;;;;;6104733;23;20032;-70
2023/07/22 01:55:57;;;;;;;;;;;17.20;99.90;;;;;;6107467;23;19953;-70
2023/07/22 01:58:23;;;;;;;;;;;17.30;99.90;;;;;;6110130;23;19926;-70
2023/07/22 02:00:51;;;;;;;;;;;17.30;99.90;;;;;;6107094;23;19929;-70
2023/07/22 02:03:16;;;;;;;;;;;17.30;99.90;;;;;;6108454;23;19933;-70
2023/07/22 02:05:43;;;;;;;;;;;17.20;99.90;;;;;;6107333;23;20689;-70
2023/07/22 02:08:08;;;;;;;;;;;17.20;99.90;;;;;;6108682;23;19985;-70
2023/07/22 02:10:34;;;;;;;;;;;17.20;99.90;;;;;;6107753;23;19960;-70
2023/07/22 02:12:59;;;;;;;;;;;17.30;99.90;;;;;;6106280;23;20392;-70
2023/07/22 02:15:25;;;;;;;;;;;17.20;99.90;;;;;;6108442;23;19929;-70
2023/07/22 02:17:51;;;;;;;;;;;17.30;99.90;;;;;;6104565;23;19946;-70
2023/07/22 02:20:17;;;;;;;;;;;17.30;99.90;;;;;;6105897;23;20385;-70
2023/07/22 02:22:42;;;;;;;;;;;17.30;99.90;;;;;;6107882;23;19990;-70
2023/07/22 02:25:10;;;;;;;;;;;17.30;99.90;;;;;;6106807;23;20014;-70
2023/07/22 02:27:36;;;;;;;;;;;17.40;99.90;;;;;;6107879;23;19929;-70
2023/07/22 02:30:02;;;;;;;;;;;17.40;99.90;;;;;;6107098;23;19955;-70
2023/07/22 02:32:28;;;;;;;;;;;17.50;99.90;;;;;;6106571;23;19954;-70
2023/07/22 02:34:54;;;;;;;;;;;17.50;99.90;;;;;;6106554;23;20769;-71
2023/07/22 02:37:19;;;;;;;;;;;17.60;99.90;;;;;;6108234;23;19937;-71
2023/07/22 02:39:45;;;;;;;;;;;17.60;99.90;;;;;;6108194;23;19929;-70
2023/07/22 02:42:11;;;;;;;;;;;17.60;99.90;;;;;;6106939;23;20650;-70
2023/07/22 02:44:36;;;;;;;;;;;17.70;99.90;;;;;;6106983;23;19962;-70
2023/07/22 02:47:02;;;;;;;;;;;17.60;99.90;;;;;;6107894;23;19933;-70
2023/07/22 02:49:27;;;;;;;;;;;17.50;99.90;;;;;;6110476;23;19937;-70
2023/07/22 02:51:54;;;;;;;;;;;17.50;99.90;;;;;;6108537;23;19982;-70
2023/07/22 02:54:19;;;;;;;;;;;17.40;99.90;;;;;;6110218;23;20429;-70
2023/07/22 02:56:45;;;;;;;;;;;17.30;99.90;;;;;;6108003;23;19929;-70
2023/07/22 02:59:10;;;;;;;;;;;17.40;99.90;;;;;;6108754;23;20092;-70
2023/07/22 03:01:36;;;;;;;;;;;17.40;99.90;;;;;;6106217;23;20777;-70
2023/07/22 03:04:02;;;;;;;;;;;17.40;99.90;;;;;;6108630;23;19962;-70
2023/07/22 03:06:28;;;;;;;;;;;17.50;99.90;;;;;;6107966;23;19930;-70
2023/07/22 03:08:54;;;;;;;;;;;17.50;99.90;;;;;;6105062;23;19931;-70
2023/07/22 03:11:19;;;;;;;;;;;17.30;99.90;;;;;;6109187;23;20279;-70
2023/07/22 03:13:45;;;;;;;;;;;17.30;99.90;;;;;;6108023;23;20732;-70
2023/07/22 03:16:10;;;;;;;;;;;17.20;99.90;;;;;;6108983;23;19939;-70
2023/07/22 03:18:36;;;;;;;;;;;17.20;99.90;;;;;;6107626;23;20966;-70
2023/07/22 03:21:02;;;;;;;;;;;17.20;99.90;;;;;;6108037;23;19932;-71
2023/07/22 03:23:28;;;;;;;;;;;17.20;99.90;;;;;;6107083;23;19933;-70
2023/07/22 03:25:54;;;;;;;;;;;17.20;99.90;;;;;;6107817;23;20472;-71
2023/07/22 03:28:20;;;;;;;;;;;17.20;99.90;;;;;;6108606;23;20465;-70
2023/07/22 03:30:45;;;;;;;;;;;17.20;99.90;;;;;;6106008;23;19949;-70
2023/07/22 03:33:11;;;;;;;;;;;17.20;99.90;;;;;;6107922;23;19935;-70
2023/07/22 03:35:36;;;;;;;;;;;17.20;99.90;;;;;;6107700;23;20670;-70
2023/07/22 03:38:02;;;;;;;;;;;17.20;99.90;;;;;;6107890;23;20000;-70
2023/07/22 03:40:29;;;;;;;;;;;17.20;99.90;;;;;;6108744;23;19932;-71
2023/07/22 03:42:55;;;;;;;;;;;17.20;99.90;;;;;;6109093;23;19947;-71
2023/07/22 03:45:21;;;;;;;;;;;17.20;99.90;;;;;;6106314;23;19958;-70
2023/07/22 03:47:51;;;;;;;;;;;17.20;99.90;;;;;;6108036;23;19942;-70
2023/07/22 03:50:16;;;;;;;;;;;17.20;99.90;;;;;;6108467;23;20064;-70
2023/07/22 03:52:42;;;;;;;;;;;17.20;99.90;;;;;;6108639;23;19938;-70
2023/07/22 03:55:08;;;;;;;;;;;17.20;99.90;;;;;;6106428;23;20011;-70
2023/07/22 03:57:34;;;;;;;;;;;17.20;99.90;;;;;;6107705;23;20328;-70
2023/07/22 04:00:00;;;;;;;;;;;17.20;99.90;;;;;;6106576;23;20274;-69
2023/07/22 04:02:25;;;;;;;;;;;17.10;99.90;;;;;;6105339;23;19926;-70
2023/07/22 04:04:51;;;;;;;;;;;17.10;99.90;;;;;;6108263;23;20640;-70
2023/07/22 04:07:17;;;;;;;;;;;17.10;99.90;;;;;;6107296;23;19948;-70
2023/07/22 04:09:43;;;;;;;;;;;17.10;99.90;;;;;;6107624;23;20200;-70
2023/07/22 04:12:08;;;;;;;;;;;17.10;99.90;;;;;;6107901;23;19969;-70
2023/07/22 04:14:34;;;;;;;;;;;17.10;99.90;;;;;;6107950;23;20441;-70
2023/07/22 04:16:59;;;;;;;;;;;17.10;99.90;;;;;;6106432;23;19923;-70
2023/07/22 04:19:25;;;;;;;;;;;17.20;99.90;;;;;;6109928;23;20008;-70
2023/07/22 04:21:50;;;;;;;;;;;17.20;99.90;;;;;;6103764;23;19946;-70
2023/07/22 04:24:16;;;;;;;;;;;17.30;99.90;;;;;;6108324;23;20011;-70
2023/07/22 04:26:42;;;;;;;;;;;17.30;99.90;;;;;;6106226;23;19931;-70
2023/07/22 04:29:08;;;;;;;;;;;17.40;99.90;;;;;;6110585;23;19926;-70
2023/07/22 04:31:33;;;;;;;;;;;17.40;99.90;;;;;;6106993;23;20807;-70
2023/07/22 04:33:59;;;;;;;;;;;17.40;99.90;;;;;;6105033;23;19978;-70
2023/07/22 04:36:24;;;;;;;;;;;17.50;99.90;;;;;;6107751;23;19957;-70
2023/07/22 04:38:50;;;;;;;;;;;17.50;99.90;;;;;;6110856;23;19946;-70
2023/07/22 04:41:15;;;;;;;;;;;17.60;99.90;;;;;;6108068;23;19930;-70
2023/07/22 04:43:41;;;;;;;;;;;17.60;99.90;;;;;;6105765;23;19976;-69
2023/07/22 04:46:07;;;;;;;;;;;17.60;99.90;;;;;;6107549;23;19961;-70
2023/07/22 04:48:33;;;;;;;;;;;17.60;99.90;;;;;;6111303;23;19968;-70
2023/07/22 04:50:58;;;;;;;;;;;17.70;99.90;;;;;;6109525;23;19992;-70
2023/07/22 04:53:24;;;;;;;;;;;17.70;99.90;;;;;;6110337;23;19971;-70
2023/07/22 04:55:49;;;;;;;;;;;17.70;99.90;;;;;;6109717;23;20133;-70
2023/07/22 04:58:15;;;;;;;;;;;17.80;99.90;;;;;;6110568;23;20526;-70
2023/07/22 05:00:42;;;;;;;;;;;17.80;99.90;;;;;;6108053;23;20638;-70
2023/07/22 05:03:08;;;;;;;;;;;17.90;99.90;;;;;;6110015;23;19978;-70
2023/07/22 05:05:33;;;;;;;;;;;17.90;99.90;;;;;;6108071;23;20465;-69
2023/07/22 05:07:59;;;;;;;;;;;17.90;99.90;;;;;;6109234;23;20348;-70
2023/07/22 05:10:24;;;;;;;;;;;17.90;99.90;;;;;;6109568;23;20010;-70
2023/07/22 05:12:50;;;;;;;;;;;18.00;99.90;;;;;;6110211;23;20248;-70
2023/07/22 05:15:15;;;;;;;;;;;18.00;99.90;;;;;;6107597;23;19927;-69
2023/07/22 05:17:41;;;;;;;;;;;18.00;99.90;;;;;;6108995;23;20262;-70
2023/07/22 05:20:09;;;;;;;;;;;18.00;99.90;;;;;;6107868;23;20009;-70
2023/07/22 05:22:35;;;;;;;;;;;18.10;99.90;;;;;;6107596;23;20022;-70
2023/07/22 05:25:01;;;;;;;;;;;18.10;99.90;;;;;;6107085;23;20486;-70
2023/07/22 05:27:26;;;;;;;;;;;18.10;99.90;;;;;;6109288;23;19929;-68
2023/07/22 05:29:52;;;;;;;;;;;18.20;99.90;;;;;;6108100;23;19932;-68
2023/07/22 05:32:18;;;;;;;;;;;18.30;99.90;;;;;;6108293;23;19963;-68
2023/07/22 05:34:43;;;;;;;;;;;18.30;99.90;;;;;;6107192;23;20349;-68
2023/07/22 05:37:09;;;;;;;;;;;18.40;99.90;;;;;;6109523;23;19965;-69
2023/07/22 05:39:34;;;;;;;;;;;18.50;99.90;;;;;;6108935;23;20258;-68
2023/07/22 05:42:00;;;;;;;;;;;18.60;99.90;;;;;;6106814;23;19935;-68
2023/07/22 05:44:25;;;;;;;;;;;18.70;99.90;;;;;;6108671;23;20021;-68
2023/07/22 05:46:51;;;;;;;;;;;18.80;99.90;;;;;;6108798;23;19929;-68
2023/07/22 05:49:16;;;;;;;;;;;18.90;99.90;;;;;;6107463;23;20582;-68
2023/07/22 05:51:42;;;;;;;;;;;19.00;99.90;;;;;;6105813;23;19979;-68
2023/07/22 05:54:07;;;;;;;;;;;19.10;99.90;;;;;;6106887;23;20245;-68
2023/07/22 05:56:33;;;;;;;;;;;19.30;99.90;;;;;;6109809;23;20008;-70
2023/07/22 05:58:58;;;;;;;;;;;19.40;99.90;;;;;;6108637;23;20342;-71
2023/07/22 06:01:24;;;;;;;;;;;19.60;99.90;;;;;;6105733;23;19940;-72
2023/07/22 06:03:50;;;;;;;;;;;19.70;99.90;;;;;;6109026;23;19939;-71
2023/07/22 06:06:15;;;;;;;;;;;19.80;99.90;;;;;;6106989;23;20579;-71
2023/07/22 06:08:41;;;;;;;;;;;19.90;99.90;;;;;;6107279;23;19935;-71
2023/07/22 06:11:07;;;;;;;;;;;20.00;99.90;;;;;;6111140;23;19953;-72
2023/07/22 06:13:32;;;;;;;;;;;20.10;99.90;;;;;;6110256;23;20507;-71
2023/07/22 06:15:58;;;;;;;;;;;20.20;99.90;;;;;;6108029;23;19925;-71
2023/07/22 06:18:23;;;;;;;;;;;20.30;99.90;;;;;;6109216;23;19938;-71
2023/07/22 06:20:49;;;;;;;;;;;20.40;99.90;;;;;;6106875;23;20036;-71
2023/07/22 06:23:14;;;;;;;;;;;20.50;99.90;;;;;;6109714;23;19962;-72
2023/07/22 06:25:40;;;;;;;;;;;20.60;99.90;;;;;;6111304;23;19928;-73
2023/07/22 06:28:06;;;;;;;;;;;20.70;99.90;;;;;;6108327;23;20353;-72
2023/07/22 06:30:32;;;;;;;;;;;20.70;99.90;;;;;;6106851;23;19951;-72
2023/07/22 06:32:57;;;;;;;;;;;20.70;99.90;;;;;;6110191;23;19933;-73
2023/07/22 06:35:23;;;;;;;;;;;20.80;99.90;;;;;;6108540;23;19927;-73
2023/07/22 06:37:48;;;;;;;;;;;20.90;99.90;;;;;;6104723;23;20386;-73
2023/07/22 06:40:14;;;;;;;;;;;21.00;99.90;;;;;;6108235;23;19935;-72
2023/07/22 06:42:39;;;;;;;;;;;21.00;99.90;;;;;;6106313;23;19957;-73
2023/07/22 06:45:05;;;;;;;;;;;21.20;99.90;;;;;;6105549;23;19934;-68
2023/07/22 06:47:31;;;;;;;;;;;21.20;99.90;;;;;;6104289;23;20659;-69
2023/07/22 06:49:56;;;;;;;;;;;21.30;99.90;;;;;;6105245;23;19925;-69
2023/07/22 06:52:22;;;;;;;;;;;21.40;99.90;;;;;;6107023;23;20321;-68
2023/07/22 06:54:47;;;;;;;;;;;21.40;99.90;;;;;;6105861;23;19941;-69
2023/07/22 06:57:13;;;;;;;;;;;21.50;99.90;;;;;;6106446;23;19969;-68
2023/07/22 06:59:38;;;;;;;;;;;21.60;99.90;;;;;;6106356;23;20078;-68
2023/07/22 07:02:07;;;;;;;;;;;21.70;99.90;;;;;;6108340;23;20018;-69
2023/07/22 07:04:32;;;;;;;;;;;21.70;99.90;;;;;;6107052;23;19933;-69
2023/07/22 07:06:59;;;;;;;;;;;21.70;99.90;;;;;;6107286;23;19924;-69
2023/07/22 07:09:25;;;;;;;;;;;21.70;99.90;;;;;;6107175;23;19922;-69
2023/07/22 07:11:51;;;;;;;;;;;21.70;99.90;;;;;;6108276;23;20002;-69
2023/07/22 07:14:17;;;;;;;;;;;21.90;99.90;;;;;;6107206;23;19929;-69
2023/07/22 07:16:43;;;;;;;;;;;22.10;99.90;;;;;;6107086;23;19927;-69
2023/07/22 07:19:08;;;;;;;;;;;22.20;99.90;;;;;;6106321;23;19920;-70
2023/07/22 07:21:34;;;;;;;;;;;22.30;99.90;;;;;;6106518;23;19987;-69
2023/07/22 07:23:59;;;;;;;;;;;22.40;99.90;;;;;;6106171;23;20025;-68
2023/07/22 07:26:25;;;;;;;;;;;22.60;99.90;;;;;;6106144;23;19941;-68
2023/07/22 07:28:51;;;;;;;;;;;22.70;99.90;;;;;;6106162;23;19925;-68
2023/07/22 07:31:17;;;;;;;;;;;22.80;99.90;;;;;;6102408;23;20600;-71
2023/07/22 07:33:42;;;;;;;;;;;23.00;99.90;;;;;;6107646;23;19994;-71
2023/07/22 07:36:08;;;;;;;;;;;23.00;99.90;;;;;;6107712;23;19927;-70
2023/07/22 07:38:33;;;;;;;;;;;22.90;99.90;;;;;;6107381;23;19927;-70
2023/07/22 07:41:00;;;;;;;;;;;22.80;99.90;;;;;;6108330;23;19953;-71
2023/07/22 07:43:26;;;;;;;;;;;22.60;99.90;;;;;;6107601;23;20066;-73
2023/07/22 07:46:11;;;;;;;;;;;22.50;99.90;;;;;;6106280;23;19950;-75
2023/07/22 07:48:37;;;;;;;;;;;22.40;99.90;;;;;;6109345;23;19928;-71
2023/07/22 07:51:03;;;;;;;;;;;22.30;99.90;;;;;;6107079;23;19967;-72
2023/07/22 07:53:28;;;;;;;;;;;22.20;99.90;;;;;;6107481;23;19952;-68
2023/07/22 07:55:54;;;;;;;;;;;22.30;99.90;;;;;;6108196;23;19923;-69
2023/07/22 07:58:19;;;;;;;;;;;22.30;99.90;;;;;;6109663;23;19920;-68
2023/07/22 08:00:45;;;;;;;;;;;22.40;99.90;;;;;;6104129;23;20015;-68
2023/07/22 08:03:10;;;;;;;;;;;22.40;99.90;;;;;;6103456;23;19943;-69
2023/07/22 08:05:36;;;;;;;;;;;22.30;99.90;;;;;;6107599;23;19927;-67
2023/07/22 08:08:01;;;;;;;;;;;22.30;99.90;;;;;;6103203;23;19931;-66
2023/07/22 08:10:27;;;;;;;;;;;22.30;99.90;;;;;;6105424;23;20012;-70
2023/07/22 08:12:53;;;;;;;;;;;22.30;99.90;;;;;;6109231;23;19937;-71
2023/07/22 08:15:18;;;;;;;;;;;22.40;99.90;;;;;;6106396;23;19931;-74
2023/07/22 08:17:44;;;;;;;;;;;22.60;99.90;;;;;;6107983;23;20365;-73
2023/07/22 08:20:10;;;;;;;;;;;22.60;99.90;;;;;;6106272;23;20639;-72
2023/07/22 08:22:35;;;;;;;;;;;22.50;99.90;;;;;;6109088;23;19936;-72
2023/07/22 08:25:01;;;;;;;;;;;22.50;99.90;;;;;;6106519;23;19928;-73
2023/07/22 08:27:27;;;;;;;;;;;22.50;99.90;;;;;;6107413;23;19923;-69
2023/07/22 08:29:52;;;;;;;;;;;22.50;99.90;;;;;;6106581;23;19928;-74
2023/07/22 08:32:18;;;;;;;;;;;22.60;99.90;;;;;;6108651;23;19954;-74
2023/07/22 08:34:43;;;;;;;;;;;22.60;99.90;;;;;;6105222;23;20323;-73
2023/07/22 08:37:09;;;;;;;;;;;22.80;99.90;;;;;;6108669;23;19944;-73
2023/07/22 08:39:34;;;;;;;;;;;22.90;99.90;;;;;;6108246;23;19926;-73
2023/07/22 08:42:02;;;;;;;;;;;22.90;99.90;;;;;;6107765;23;20733;-73
2023/07/22 08:44:29;;;;;;;;;;;23.00;99.90;;;;;;6108602;23;19984;-73
2023/07/22 08:46:57;;;;;;;;;;;22.90;99.90;;;;;;6110540;23;20011;-73
2023/07/22 08:49:23;;;;;;;;;;;22.90;99.90;;;;;;6107552;23;19961;-73
2023/07/22 08:51:48;;;;;;;;;;;23.00;99.90;;;;;;6106820;23;20463;-74
2023/07/22 08:54:14;;;;;;;;;;;23.10;99.90;;;;;;6107593;23;20163;-73
2023/07/22 08:56:40;;;;;;;;;;;23.10;99.90;;;;;;6110065;23;19928;-73
2023/07/22 08:59:05;;;;;;;;;;;23.10;99.90;;;;;;6103063;23;19930;-73
2023/07/22 09:01:32;;;;;;;;;;;23.00;99.90;;;;;;6103955;23;19935;-73
2023/07/22 09:03:58;;;;;;;;;;;23.10;99.90;;;;;;6095219;23;19942;-69
2023/07/22 09:06:23;;;;;;;;;;;23.10;99.90;;;;;;6103372;23;19930;-69
2023/07/22 09:08:50;;;;;;;;;;;23.20;99.90;;;;;;6103376;23;19928;-69
2023/07/22 09:11:15;;;;;;;;;;;23.30;99.90;;;;;;6103558;23;20659;-69
2023/07/22 09:13:44;;;;;;;;;;;23.30;99.90;;;;;;6108135;23;19933;-69
2023/07/22 09:16:10;;;;;;;;;;;23.40;99.90;;;;;;6109006;23;20544;-69
2023/07/22 09:18:35;;;;;;;;;;;23.40;99.90;;;;;;6108377;23;20263;-69
2023/07/22 09:21:01;;;;;;;;;;;23.40;99.90;;;;;;6104756;23;20006;-74
2023/07/22 09:23:37;;;;;;;;;;;23.40;99.90;;;;;;6099899;23;19935;-76
2023/07/22 09:26:09;;;;;;;;;;;23.60;99.90;;;;;;6107203;23;19922;-76
2023/07/22 09:28:47;;;;;;;;;;;23.60;99.90;;;;;;6107857;23;19928;-73
2023/07/22 09:31:13;;;;;;;;;;;23.50;99.90;;;;;;6106268;23;20186;-73
2023/07/22 09:33:38;;;;;;;;;;;23.50;99.90;;;;;;6108955;23;20630;-72
2023/07/22 09:36:04;;;;;;;;;;;23.60;99.90;;;;;;6107394;23;19975;-70
2023/07/22 09:38:29;;;;;;;;;;;23.60;99.90;;;;;;6107958;23;19922;-71
2023/07/22 09:40:55;;;;;;;;;;;23.70;99.90;;;;;;6104851;23;19927;-73
2023/07/22 09:43:22;;;;;;;;;;;23.70;99.90;;;;;;6104832;23;20249;-71
2023/07/22 09:45:48;;;;;;;;;;;23.70;99.90;;;;;;6103989;23;19926;-72
2023/07/22 09:48:14;;;;;;;;;;;23.70;99.90;;;;;;6107469;23;19990;-69
2023/07/22 09:50:39;;;;;;;;;;;23.70;99.90;;;;;;6108022;23;19951;-69
2023/07/22 09:53:06;;;;;;;;;;;23.70;99.90;;;;;;6105334;23;19926;-68
2023/07/22 09:55:32;;;;;;;;;;;23.80;99.90;;;;;;6099062;23;20093;-69
2023/07/22 09:58:09;;;;;;;;;;;23.90;99.90;;;;;;6104294;23;19927;-68
2023/07/22 10:00:35;;;;;;;;;;;24.10;99.90;;;;;;6107062;23;20000;-68
2023/07/22 10:03:01;;;;;;;;;;;24.20;99.90;;;;;;6107346;23;20379;-69
2023/07/22 10:05:29;;;;;;;;;;;24.20;99.90;;;;;;6107995;23;19934;-68
2023/07/22 10:07:55;;;;;;;;;;;24.20;99.90;;;;;;6105925;23;19928;-68
2023/07/22 10:10:22;;;;;;;;;;;24.20;99.90;;;;;;6104241;23;19942;-68
2023/07/22 10:12:48;;;;;;;;;;;24.40;99.90;;;;;;6104463;23;20325;-69
2023/07/22 10:15:15;;;;;;;;;;;24.30;99.90;;;;;;6099462;23;19996;-68
2023/07/22 10:17:41;;;;;;;;;;;24.30;99.90;;;;;;6101730;23;19941;-69
2023/07/22 10:20:07;;;;;;;;;;;24.20;99.90;;;;;;6100039;23;19935;-69
2023/07/22 10:22:34;;;;;;;;;;;24.20;99.90;;;;;;6108364;23;20003;-69
2023/07/22 10:25:01;;;;;;;;;;;24.30;99.90;;;;;;6101499;23;19953;-69
2023/07/22 10:27:28;;;;;;;;;;;24.40;99.90;;;;;;6104618;23;19956;-69
2023/07/22 10:29:53;;;;;;;;;;;24.40;99.90;;;;;;6106853;23;20108;-70
2023/07/22 10:32:19;;;;;;;;;;;24.40;99.90;;;;;;6102964;23;20017;-71
2023/07/22 10:34:44;;;;;;;;;;;24.20;99.90;;;;;;6105221;23;19947;-70
2023/07/22 10:37:13;;;;;;;;;;;24.10;99.90;;;;;;6105464;23;20560;-71
2023/07/22 10:39:38;;;;;;;;;;;24.10;99.90;;;;;;6104069;23;19926;-71
2023/07/22 10:42:04;;;;;;;;;;;24.20;99.90;;;;;;6101200;23;19994;-70
2023/07/22 10:44:35;;;;;;;;;;;24.20;99.90;;;;;;6103577;23;19969;-71
2023/07/22 10:47:03;;;;;;;;;;;24.30;99.90;;;;;;6101646;23;19933;-70
2023/07/22 10:49:42;;;;;;;;;;;24.30;99.90;;;;;;6102558;23;19961;-72
2023/07/22 10:52:10;;;;;;;;;;;24.40;99.90;;;;;;6103794;23;19960;-71
2023/07/22 10:54:36;;;;;;;;;;;24.50;99.90;;;;;;6101450;23;19965;-70
2023/07/22 10:57:14;;;;;;;;;;;24.50;99.90;;;;;;6102490;23;19947;-71
2023/07/22 10:59:47;;;;;;;;;;;24.50;99.90;;;;;;6103293;23;19928;-65
2023/07/22 11:02:22;;;;;;;;;;;24.60;99.90;;;;;;6104075;23;20741;-65
2023/07/22 11:04:48;;;;;;;;;;;24.80;99.90;;;;;;6103543;23;20010;-71
2023/07/22 11:07:13;;;;;;;;;;;24.80;99.90;;;;;;6102204;23;20680;-73
2023/07/22 11:09:39;;;;;;;;;;;24.80;99.90;;;;;;6101868;23;20002;-73
2023/07/22 11:12:10;;;;;;;;;;;24.90;99.90;;;;;;6102417;23;20763;-74
2023/07/22 11:14:40;;;;;;;;;;;24.90;99.90;;;;;;6103827;23;20337;-67
2023/07/22 11:17:10;;;;;;;;;;;24.80;99.90;;;;;;6103644;23;19967;-66
2023/07/22 11:19:37;;;;;;;;;;;24.70;99.90;;;;;;6098876;23;19930;-66
2023/07/22 11:22:03;;;;;;;;;;;24.60;99.90;;;;;;6096796;23;19932;-65
2023/07/22 11:24:28;;;;;;;;;;;24.60;99.90;;;;;;6101572;23;19943;-66
2023/07/22 11:26:54;;;;;;;;;;;24.80;99.90;;;;;;6106200;23;19990;-66
2023/07/22 11:29:19;;;;;;;;;;;24.70;99.90;;;;;;6107331;23;19950;-66
2023/07/22 11:31:46;;;;;;;;;;;24.70;99.90;;;;;;6101777;23;20003;-66
2023/07/22 11:34:15;;;;;;;;;;;24.80;99.90;;;;;;6106860;23;19971;-71
2023/07/22 11:36:41;;;;;;;;;;;24.90;99.30;;;;;;6103195;23;19962;-72
2023/07/22 11:39:31;;;;;;;;;;;25.00;99.90;;;;;;6105969;23;19948;-72
2023/07/22 11:41:59;;;;;;;;;;;25.10;99.40;;;;;;6106397;23;20015;-73
2023/07/22 11:44:27;;;;;;;;;;;25.10;99.50;;;;;;6104086;23;20373;-73
2023/07/22 11:46:58;;;;;;;;;;;25.20;99.90;;;;;;6108091;23;20105;-73
2023/07/22 11:49:25;;;;;;;;;;;25.20;99.90;;;;;;6103838;23;20165;-73
2023/07/22 11:51:51;;;;;;;;;;;25.40;99.90;;;;;;6106278;23;19984;-75
2023/07/22 11:54:17;;;;;;;;;;;25.40;98.80;;;;;;6103500;23;20372;-70
2023/07/22 11:56:42;;;;;;;;;;;25.30;98.90;;;;;;6106007;23;19950;-70
2023/07/22 11:59:08;;;;;;;;;;;25.40;99.90;;;;;;6104445;23;19919;-71
2023/07/22 12:01:34;;;;;;;;;;;25.50;99.90;;;;;;6102021;23;20606;-71
2023/07/22 12:03:59;;;;;;;;;;;25.60;99.90;;;;;;6102131;23;20011;-70
2023/07/22 12:06:26;;;;;;;;;;;25.60;99.90;;;;;;6094730;23;20722;-71
2023/07/22 12:08:51;;;;;;;;;;;25.60;98.30;;;;;;6103866;23;19990;-71
2023/07/22 12:11:18;;;;;;;;;;;25.60;98.60;;;;;;6104501;23;19947;-70
2023/07/22 12:13:46;;;;;;;;;;;25.60;97.60;;;;;;6102372;23;20594;-71
2023/07/22 12:16:12;;;;;;;;;;;25.60;97.20;;;;;;6103512;23;19935;-70
2023/07/22 12:18:44;;;;;;;;;;;25.60;99.30;;;;;;6100467;23;19922;-71
2023/07/22 12:21:09;;;;;;;;;;;25.70;98.70;;;;;;6101380;23;20024;-71
2023/07/22 12:23:36;;;;;;;;;;;25.80;98.80;;;;;;6102931;23;20604;-71
2023/07/22 12:26:01;;;;;;;;;;;25.90;95.90;;;;;;6104189;23;19927;-71
2023/07/22 12:28:27;;;;;;;;;;;25.80;95.40;;;;;;6103287;23;20022;-71
2023/07/22 12:30:52;;;;;;;;;;;25.70;94.30;;;;;;6100615;23;19955;-70
2023/07/22 12:33:18;;;;;;;;;;;25.70;95.90;;;;;;6105232;23;20741;-71
2023/07/22 12:35:43;;;;;;;;;;;25.80;94.30;;;;;;6100829;23;20020;-70
2023/07/22 12:38:09;;;;;;;;;;;25.80;94.10;;;;;;6098470;23;19928;-69
2023/07/22 12:40:34;;;;;;;;;;;25.90;93.20;;;;;;6105170;23;20702;-69
2023/07/22 12:43:00;;;;;;;;;;;26.00;93.30;;;;;;6108229;23;20230;-69
2023/07/22 12:45:25;;;;;;;;;;;26.10;93.60;;;;;;6107708;23;19980;-69
2023/07/22 12:47:51;;;;;;;;;;;26.00;93.80;;;;;;6108490;23;20358;-69
2023/07/22 12:50:16;;;;;;;;;;;25.90;92.70;;;;;;6104521;23;19922;-68
2023/07/22 12:52:42;;;;;;;;;;;25.90;91.60;;;;;;6108143;23;19998;-68
2023/07/22 12:55:07;;;;;;;;;;;25.90;92.50;;;;;;6108243;23;19918;-69
2023/07/22 12:57:33;;;;;;;;;;;25.90;93.80;;;;;;6108755;23;19924;-68
2023/07/22 12:59:59;;;;;;;;;;;26.10;94.10;;;;;;6107437;23;19982;-68
2023/07/22 13:02:25;;;;;;;;;;;26.10;92.60;;;;;;6108281;23;19969;-69
2023/07/22 13:04:50;;;;;;;;;;;26.10;90.20;;;;;;6106122;23;19931;-71
2023/07/22 13:07:16;;;;;;;;;;;26.10;92.50;;;;;;6106595;23;19999;-69
2023/07/22 13:09:43;;;;;;;;;;;26.10;90.20;;;;;;6109683;23;19927;-71
2023/07/22 13:12:08;;;;;;;;;;;26.10;90.70;;;;;;6111002;23;19955;-70
2023/07/22 13:14:34;;;;;;;;;;;26.20;93.50;;;;;;6114930;23;20720;-70
2023/07/22 13:16:59;;;;;;;;;;;26.40;92.40;;;;;;6112916;23;19923;-71
2023/07/22 13:19:25;;;;;;;;;;;26.40;93.50;;;;;;6110507;23;19928;-71
2023/07/22 13:21:50;;;;;;;;;;;26.50;91.50;;;;;;6109792;23;20008;-75
2023/07/22 13:24:16;;;;;;;;;;;26.50;86.90;;;;;;6113612;23;20669;-75
2023/07/22 13:26:41;;;;;;;;;;;26.40;91.00;;;;;;6115208;23;19955;-75
2023/07/22 13:29:08;;;;;;;;;;;26.50;92.10;;;;;;6114248;23;19949;-75
2023/07/22 13:31:34;;;;;;;;;;;26.60;90.80;;;;;;6114714;23;19953;-75
2023/07/22 13:34:00;;;;;;;;;;;26.70;91.60;;;;;;6113131;23;19944;-75
2023/07/22 13:36:25;;;;;;;;;;;26.80;90.80;;;;;;6114083;23;19909;-75
2023/07/22 13:38:50;;;;;;;;;;;26.80;89.60;;;;;;6114268;23;19931;-75
2023/07/22 13:41:16;;;;;;;;;;;26.70;85.50;;;;;;6113245;23;19956;-71
2023/07/22 13:43:41;;;;;;;;;;;26.70;82.90;;;;;;6114177;23;20002;-70
2023/07/22 13:46:08;;;;;;;;;;;26.60;85.40;;;;;;6109890;23;19937;-70
2023/07/22 13:48:33;;;;;;;;;;;26.60;83.70;;;;;;6112887;23;19930;-71
2023/07/22 13:50:59;;;;;;;;;;;26.50;78.10;;;;;;6114555;23;19948;-70
2023/07/22 13:53:24;;;;;;;;;;;26.40;87.40;;;;;;6114058;23;19924;-70
2023/07/22 13:55:50;;;;;;;;;;;26.50;82.60;;;;;;6113233;23;19972;-70
2023/07/22 13:58:15;;;;;;;;;;;26.50;87.00;;;;;;6107681;23;19931;-70
2023/07/22 14:00:41;;;;;;;;;;;26.60;84.60;;;;;;6111030;23;19934;-71
2023/07/22 14:03:06;;;;;;;;;;;26.60;88.30;;;;;;6112856;23;19930;-70
2023/07/22 14:05:32;;;;;;;;;;;26.70;84.60;;;;;;6111608;23;19922;-70
2023/07/22 14:07:58;;;;;;;;;;;26.70;86.30;;;;;;6114642;23;19947;-71
2023/07/22 14:10:23;;;;;;;;;;;26.70;81.20;;;;;;6112442;23;19918;-70